Regina International Airport
CYQR : now visible

Airfield :











YOU CAN JOIN US ON...

 
LOGIN :

Register | Disclaimer

   EN    FR    IT 

 









Legend :    VFR   Marginal VFR   IFR   Intensive IFR   Very Intensive IFR
Visi :
Ceiling :
>= 8 km
>= 3000ft
5 to 8 km
1000 to 3000 ft
1500m to 5 km
500 to 1000 ft
800 to 1500m
200 to 500 ft
< 800m
< 200 ft
Symbols :   Thunderstorms  Fog  Heavy snow  Heavy precipitations  Wind > 20 kt






- Airport Elevation : 1894 ft
- IATA code : YQR


CYQR - Regina International

CURRENT METAR :
  • 200705Z 35013G18KT 12SM -SHRASN BKN006 OVC040 01/00 A2962 RMK SC5SC3 CVCTV CLD EMBD SLP051

EXPIRED METARs :
  • 200643Z 36014G23KT 15SM -SHSN BKN008 BKN046 01/00 A2961 RMK SC6SC1 CVCTV CLD EMBD SLP046
  • 200622Z 01016G27KT 15SM BKN008 BKN013 01/00 A2960 RMK SC5SC1 SLP043
  • 200600Z 36016G22KT 15SM -SHSN BKN010 01/00 A2958 RMK SC7 CVCTV CLD EMBD SLP038
  • 200500Z 02023G30KT 6SM -SHSN BKN009 OVC018 01/M00 A2955 RMK SC6SC2 CVCTV CLD EMBD SLP026

TAF TAF CYQR
Valid from the 20 at 06:00 until the 21 at 06:00 UTC


200543Z 2006/2106 02020G30KT P6SM -RA OVC020
TEMPO 2006/2009 3SM -SHSNRA OVC007
FM200900 02018G28KT P6SM SCT020 BKN060
FM201200 01015KT P6SM SCT080 BKN120
FM201500 35020KT P6SM SCT050
TEMPO 2015/2018 BKN050
FM201800 35018KT P6SM BKN030
TEMPO 2018/2106 6SM -RA BR OVC020 RMK NXT FCST BY 201200Z
CZWG FIR / North America



MET'MAP, your aeronautical weather chart ! - Copyright ORBIFLY December 2007 - Disclaimer

ORBIFLY MET'MAP TEAM :

Programming & Development : Alexandra Zaïnal
Original concept : Baudouin d'Aumeries
Technical & hardware support : Manuel Goepfert
Assistance : Marc-Olivier Méhu

Contact : metmap@orbifly.com




SOURCES & CREDITS :

   NOAA       Earth
Advisory